sensor_id;sensor_type;location;lat;lon;timestamp;P1;durP1;ratioP1;P2;durP2;ratioP2
64085;SDS011;50333;47.436;21.390;2023-02-21T00:02:38;9.57;;;6.87;;
64085;SDS011;50333;47.436;21.390;2023-02-21T00:05:25;12.00;;;7.12;;
64085;SDS011;50333;47.436;21.390;2023-02-21T00:08:12;10.65;;;7.03;;
64085;SDS011;50333;47.436;21.390;2023-02-21T00:10:58;13.18;;;7.10;;
64085;SDS011;50333;47.436;21.390;2023-02-21T00:13:44;13.48;;;7.43;;
64085;SDS011;50333;47.436;21.390;2023-02-21T00:16:31;11.32;;;7.25;;
64085;SDS011;50333;47.436;21.390;2023-02-21T00:19:17;12.65;;;7.20;;
64085;SDS011;50333;47.436;21.390;2023-02-21T00:22:04;10.13;;;7.25;;
64085;SDS011;50333;47.436;21.390;2023-02-21T00:24:50;10.02;;;7.35;;
64085;SDS011;50333;47.436;21.390;2023-02-21T00:27:37;11.77;;;7.80;;
64085;SDS011;50333;47.436;21.390;2023-02-21T00:30:24;11.48;;;7.43;;
64085;SDS011;50333;47.436;21.390;2023-02-21T00:33:11;9.38;;;7.00;;
64085;SDS011;50333;47.436;21.390;2023-02-21T00:35:57;11.07;;;6.80;;
64085;SDS011;50333;47.436;21.390;2023-02-21T00:38:44;9.55;;;7.47;;
64085;SDS011;50333;47.436;21.390;2023-02-21T00:41:31;8.07;;;6.53;;
64085;SDS011;50333;47.436;21.390;2023-02-21T00:44:17;13.35;;;7.53;;
64085;SDS011;50333;47.436;21.390;2023-02-21T00:47:04;13.10;;;7.22;;
64085;SDS011;50333;47.436;21.390;2023-02-21T00:49:52;9.95;;;7.10;;
64085;SDS011;50333;47.436;21.390;2023-02-21T00:52:38;10.00;;;7.20;;
64085;SDS011;50333;47.436;21.390;2023-02-21T00:55:24;11.95;;;7.60;;
64085;SDS011;50333;47.436;21.390;2023-02-21T00:58:10;12.18;;;7.20;;
64085;SDS011;50333;47.436;21.390;2023-02-21T01:00:57;10.85;;;7.32;;
64085;SDS011;50333;47.436;21.390;2023-02-21T01:03:44;11.77;;;7.80;;
64085;SDS011;50333;47.436;21.390;2023-02-21T01:06:31;9.30;;;7.03;;
64085;SDS011;50333;47.436;21.390;2023-02-21T01:09:17;12.45;;;7.45;;
64085;SDS011;50333;47.436;21.390;2023-02-21T01:12:04;10.43;;;6.78;;
64085;SDS011;50333;47.436;21.390;2023-02-21T01:14:50;11.90;;;7.72;;
64085;SDS011;50333;47.436;21.390;2023-02-21T01:17:37;10.02;;;7.30;;
64085;SDS011;50333;47.436;21.390;2023-02-21T01:20:23;9.95;;;7.43;;
64085;SDS011;50333;47.436;21.390;2023-02-21T01:23:10;10.38;;;7.18;;
64085;SDS011;50333;47.436;21.390;2023-02-21T01:25:56;12.90;;;7.87;;
64085;SDS011;50333;47.436;21.390;2023-02-21T01:28:43;10.30;;;7.55;;
64085;SDS011;50333;47.436;21.390;2023-02-21T01:31:30;10.20;;;7.57;;
64085;SDS011;50333;47.436;21.390;2023-02-21T01:34:17;10.90;;;7.10;;
64085;SDS011;50333;47.436;21.390;2023-02-21T01:37:03;11.80;;;8.13;;
64085;SDS011;50333;47.436;21.390;2023-02-21T01:39:50;10.23;;;7.32;;
64085;SDS011;50333;47.436;21.390;2023-02-21T01:42:37;9.13;;;6.97;;
64085;SDS011;50333;47.436;21.390;2023-02-21T01:48:44;8.52;;;6.85;;
64085;SDS011;50333;47.436;21.390;2023-02-21T01:51:33;9.85;;;7.15;;
64085;SDS011;50333;47.436;21.390;2023-02-21T01:54:22;11.85;;;7.47;;
64085;SDS011;50333;47.436;21.390;2023-02-21T01:57:17;10.50;;;7.70;;
64085;SDS011;50333;47.436;21.390;2023-02-21T02:00:07;12.55;;;7.28;;
64085;SDS011;50333;47.436;21.390;2023-02-21T02:03:00;11.93;;;7.80;;
64085;SDS011;50333;47.436;21.390;2023-02-21T02:05:55;9.40;;;7.28;;
64085;SDS011;50333;47.436;21.390;2023-02-21T02:08:44;12.40;;;7.05;;
64085;SDS011;50333;47.436;21.390;2023-02-21T02:29:47;9.38;;;6.87;;
64085;SDS011;50333;47.436;21.390;2023-02-21T02:38:16;11.20;;;7.45;;
64085;SDS011;50333;47.436;21.390;2023-02-21T02:48:48;8.55;;;6.28;;
64085;SDS011;50333;47.436;21.390;2023-02-21T02:51:20;8.98;;;6.10;;
64085;SDS011;50333;47.436;21.390;2023-02-21T02:53:48;9.73;;;6.45;;
64085;SDS011;50333;47.436;21.390;2023-02-21T02:56:16;8.93;;;6.47;;
64085;SDS011;50333;47.436;21.390;2023-02-21T02:58:46;9.30;;;6.80;;
64085;SDS011;50333;47.436;21.390;2023-02-21T03:04:03;10.82;;;5.78;;
64085;SDS011;50333;47.436;21.390;2023-02-21T03:09:47;9.57;;;6.62;;
64085;SDS011;50333;47.436;21.390;2023-02-21T03:15:17;12.43;;;6.87;;
64085;SDS011;50333;47.436;21.390;2023-02-21T03:17:48;10.10;;;6.05;;
64085;SDS011;50333;47.436;21.390;2023-02-21T03:20:24;9.98;;;6.68;;
64085;SDS011;50333;47.436;21.390;2023-02-21T03:22:55;7.55;;;5.65;;
64085;SDS011;50333;47.436;21.390;2023-02-21T03:25:25;9.23;;;6.45;;
64085;SDS011;50333;47.436;21.390;2023-02-21T03:27:57;9.82;;;6.03;;
64085;SDS011;50333;47.436;21.390;2023-02-21T03:30:28;9.60;;;5.97;;
64085;SDS011;50333;47.436;21.390;2023-02-21T03:32:57;8.68;;;5.90;;
64085;SDS011;50333;47.436;21.390;2023-02-21T03:35:27;8.02;;;5.68;;
64085;SDS011;50333;47.436;21.390;2023-02-21T03:37:57;7.80;;;5.70;;
64085;SDS011;50333;47.436;21.390;2023-02-21T03:40:26;8.40;;;5.72;;
64085;SDS011;50333;47.436;21.390;2023-02-21T03:42:57;7.50;;;5.00;;
64085;SDS011;50333;47.436;21.390;2023-02-21T03:45:26;6.82;;;5.05;;
64085;SDS011;50333;47.436;21.390;2023-02-21T03:47:55;9.77;;;6.40;;
64085;SDS011;50333;47.436;21.390;2023-02-21T03:50:23;7.45;;;5.07;;
64085;SDS011;50333;47.436;21.390;2023-02-21T03:52:51;8.13;;;5.50;;
64085;SDS011;50333;47.436;21.390;2023-02-21T03:55:20;8.07;;;5.30;;
64085;SDS011;50333;47.436;21.390;2023-02-21T03:57:48;6.97;;;5.00;;
64085;SDS011;50333;47.436;21.390;2023-02-21T04:00:18;6.45;;;4.90;;
64085;SDS011;50333;47.436;21.390;2023-02-21T04:02:48;7.75;;;4.70;;
64085;SDS011;50333;47.436;21.390;2023-02-21T04:05:17;6.87;;;4.80;;
64085;SDS011;50333;47.436;21.390;2023-02-21T04:07:46;7.32;;;5.43;;
64085;SDS011;50333;47.436;21.390;2023-02-21T04:10:15;8.90;;;5.00;;
64085;SDS011;50333;47.436;21.390;2023-02-21T04:12:43;7.20;;;4.75;;
64085;SDS011;50333;47.436;21.390;2023-02-21T04:15:10;8.38;;;5.10;;
64085;SDS011;50333;47.436;21.390;2023-02-21T04:17:39;7.90;;;4.62;;
64085;SDS011;50333;47.436;21.390;2023-02-21T04:20:09;6.07;;;4.57;;
64085;SDS011;50333;47.436;21.390;2023-02-21T04:22:41;5.82;;;4.47;;
64085;SDS011;50333;47.436;21.390;2023-02-21T04:25:14;6.75;;;4.35;;
64085;SDS011;50333;47.436;21.390;2023-02-21T04:27:42;7.50;;;4.28;;
64085;SDS011;50333;47.436;21.390;2023-02-21T04:30:10;6.57;;;4.65;;
64085;SDS011;50333;47.436;21.390;2023-02-21T04:32:40;7.82;;;4.07;;
64085;SDS011;50333;47.436;21.390;2023-02-21T04:35:08;6.12;;;3.95;;
64085;SDS011;50333;47.436;21.390;2023-02-21T04:37:36;6.47;;;4.10;;
64085;SDS011;50333;47.436;21.390;2023-02-21T04:40:04;5.80;;;3.33;;
64085;SDS011;50333;47.436;21.390;2023-02-21T04:42:35;5.55;;;3.45;;
64085;SDS011;50333;47.436;21.390;2023-02-21T04:45:03;5.70;;;3.67;;
64085;SDS011;50333;47.436;21.390;2023-02-21T04:47:31;5.43;;;3.62;;
64085;SDS011;50333;47.436;21.390;2023-02-21T04:49:59;4.45;;;3.35;;
64085;SDS011;50333;47.436;21.390;2023-02-21T04:52:27;5.32;;;3.75;;
64085;SDS011;50333;47.436;21.390;2023-02-21T04:54:55;5.43;;;3.50;;
64085;SDS011;50333;47.436;21.390;2023-02-21T04:57:22;6.50;;;3.35;;
64085;SDS011;50333;47.436;21.390;2023-02-21T04:59:55;5.45;;;3.78;;
64085;SDS011;50333;47.436;21.390;2023-02-21T05:02:24;6.07;;;3.70;;
64085;SDS011;50333;47.436;21.390;2023-02-21T05:04:53;7.68;;;3.70;;
64085;SDS011;50333;47.436;21.390;2023-02-21T05:07:21;5.65;;;3.53;;
64085;SDS011;50333;47.436;21.390;2023-02-21T05:09:50;8.73;;;3.33;;
64085;SDS011;50333;47.436;21.390;2023-02-21T05:12:18;4.75;;;3.45;;
64085;SDS011;50333;47.436;21.390;2023-02-21T05:14:46;5.45;;;3.95;;
64085;SDS011;50333;47.436;21.390;2023-02-21T05:17:13;4.87;;;3.42;;
64085;SDS011;50333;47.436;21.390;2023-02-21T05:19:42;5.40;;;3.40;;
64085;SDS011;50333;47.436;21.390;2023-02-21T05:22:09;4.97;;;3.42;;
64085;SDS011;50333;47.436;21.390;2023-02-21T05:24:40;4.25;;;3.12;;
64085;SDS011;50333;47.436;21.390;2023-02-21T05:27:12;4.53;;;3.28;;
64085;SDS011;50333;47.436;21.390;2023-02-21T05:29:49;4.35;;;3.10;;
64085;SDS011;50333;47.436;21.390;2023-02-21T05:32:19;4.93;;;3.50;;
64085;SDS011;50333;47.436;21.390;2023-02-21T05:34:48;8.50;;;3.15;;
64085;SDS011;50333;47.436;21.390;2023-02-21T05:37:16;4.00;;;2.97;;
64085;SDS011;50333;47.436;21.390;2023-02-21T05:39:50;6.78;;;3.60;;
64085;SDS011;50333;47.436;21.390;2023-02-21T05:42:17;5.22;;;3.83;;
64085;SDS011;50333;47.436;21.390;2023-02-21T05:44:45;5.18;;;3.62;;
64085;SDS011;50333;47.436;21.390;2023-02-21T05:47:14;9.23;;;4.32;;
64085;SDS011;50333;47.436;21.390;2023-02-21T05:49:44;6.95;;;4.05;;
64085;SDS011;50333;47.436;21.390;2023-02-21T05:52:12;10.15;;;7.05;;
64085;SDS011;50333;47.436;21.390;2023-02-21T05:54:42;6.40;;;3.70;;
64085;SDS011;50333;47.436;21.390;2023-02-21T05:57:10;6.10;;;3.80;;
64085;SDS011;50333;47.436;21.390;2023-02-21T05:59:39;7.35;;;3.50;;
64085;SDS011;50333;47.436;21.390;2023-02-21T06:02:07;6.57;;;3.10;;
64085;SDS011;50333;47.436;21.390;2023-02-21T06:04:35;5.20;;;3.15;;
64085;SDS011;50333;47.436;21.390;2023-02-21T06:07:03;8.35;;;3.37;;
64085;SDS011;50333;47.436;21.390;2023-02-21T06:09:30;4.75;;;3.30;;
64085;SDS011;50333;47.436;21.390;2023-02-21T06:11:58;5.10;;;3.65;;
64085;SDS011;50333;47.436;21.390;2023-02-21T06:14:26;6.65;;;3.78;;
64085;SDS011;50333;47.436;21.390;2023-02-21T06:16:54;5.43;;;3.87;;
64085;SDS011;50333;47.436;21.390;2023-02-21T06:19:22;5.68;;;3.28;;
64085;SDS011;50333;47.436;21.390;2023-02-21T06:21:49;5.12;;;3.60;;
64085;SDS011;50333;47.436;21.390;2023-02-21T06:24:17;6.12;;;3.55;;
64085;SDS011;50333;47.436;21.390;2023-02-21T06:26:48;9.02;;;4.28;;
64085;SDS011;50333;47.436;21.390;2023-02-21T06:29:15;6.40;;;4.25;;
64085;SDS011;50333;47.436;21.390;2023-02-21T06:31:43;10.93;;;5.07;;
64085;SDS011;50333;47.436;21.390;2023-02-21T06:34:11;4.22;;;3.17;;
64085;SDS011;50333;47.436;21.390;2023-02-21T06:36:39;5.28;;;3.85;;
64085;SDS011;50333;47.436;21.390;2023-02-21T06:39:06;4.87;;;4.05;;
64085;SDS011;50333;47.436;21.390;2023-02-21T06:41:37;6.90;;;4.95;;
64085;SDS011;50333;47.436;21.390;2023-02-21T06:44:04;7.95;;;5.40;;
64085;SDS011;50333;47.436;21.390;2023-02-21T06:46:32;5.53;;;4.28;;
64085;SDS011;50333;47.436;21.390;2023-02-21T06:49:03;5.00;;;3.53;;
64085;SDS011;50333;47.436;21.390;2023-02-21T06:51:35;5.65;;;3.83;;
64085;SDS011;50333;47.436;21.390;2023-02-21T06:54:04;5.90;;;4.05;;
64085;SDS011;50333;47.436;21.390;2023-02-21T06:56:34;5.07;;;3.30;;
64085;SDS011;50333;47.436;21.390;2023-02-21T06:59:02;4.87;;;3.65;;
64085;SDS011;50333;47.436;21.390;2023-02-21T07:01:30;4.47;;;3.65;;
64085;SDS011;50333;47.436;21.390;2023-02-21T07:03:58;7.18;;;3.62;;
64085;SDS011;50333;47.436;21.390;2023-02-21T07:06:26;5.35;;;3.33;;
64085;SDS011;50333;47.436;21.390;2023-02-21T07:08:56;6.07;;;3.75;;
64085;SDS011;50333;47.436;21.390;2023-02-21T07:11:24;4.62;;;3.65;;
64085;SDS011;50333;47.436;21.390;2023-02-21T07:13:52;4.18;;;3.40;;
64085;SDS011;50333;47.436;21.390;2023-02-21T07:16:23;5.18;;;3.58;;
64085;SDS011;50333;47.436;21.390;2023-02-21T07:18:51;5.37;;;3.55;;
64085;SDS011;50333;47.436;21.390;2023-02-21T07:21:19;6.47;;;3.83;;
64085;SDS011;50333;47.436;21.390;2023-02-21T07:23:48;7.82;;;3.83;;
64085;SDS011;50333;47.436;21.390;2023-02-21T07:26:16;5.68;;;3.62;;
64085;SDS011;50333;47.436;21.390;2023-02-21T07:28:46;5.80;;;3.25;;
64085;SDS011;50333;47.436;21.390;2023-02-21T07:31:15;3.83;;;2.80;;
64085;SDS011;50333;47.436;21.390;2023-02-21T07:36:13;6.47;;;2.62;;
64085;SDS011;50333;47.436;21.390;2023-02-21T07:38:42;5.40;;;2.92;;
64085;SDS011;50333;47.436;21.390;2023-02-21T07:41:10;5.85;;;2.67;;
64085;SDS011;50333;47.436;21.390;2023-02-21T07:43:37;5.18;;;2.92;;
64085;SDS011;50333;47.436;21.390;2023-02-21T07:46:09;4.55;;;2.90;;
64085;SDS011;50333;47.436;21.390;2023-02-21T07:48:38;5.43;;;3.03;;
64085;SDS011;50333;47.436;21.390;2023-02-21T07:51:07;4.87;;;2.70;;
64085;SDS011;50333;47.436;21.390;2023-02-21T07:53:35;6.55;;;2.67;;
64085;SDS011;50333;47.436;21.390;2023-02-21T07:56:03;4.30;;;2.37;;
64085;SDS011;50333;47.436;21.390;2023-02-21T07:58:31;3.53;;;2.42;;
64085;SDS011;50333;47.436;21.390;2023-02-21T08:01:03;7.00;;;3.05;;
64085;SDS011;50333;47.436;21.390;2023-02-21T08:03:33;4.10;;;2.42;;
64085;SDS011;50333;47.436;21.390;2023-02-21T08:06:00;3.87;;;2.53;;
64085;SDS011;50333;47.436;21.390;2023-02-21T08:08:28;5.82;;;2.95;;
64085;SDS011;50333;47.436;21.390;2023-02-21T08:10:56;5.45;;;2.70;;
64085;SDS011;50333;47.436;21.390;2023-02-21T08:13:24;12.13;;;4.95;;
64085;SDS011;50333;47.436;21.390;2023-02-21T08:15:52;5.65;;;2.42;;
64085;SDS011;50333;47.436;21.390;2023-02-21T08:18:20;4.22;;;2.58;;
64085;SDS011;50333;47.436;21.390;2023-02-21T08:20:51;7.62;;;2.50;;
64085;SDS011;50333;47.436;21.390;2023-02-21T08:23:19;4.25;;;2.67;;
64085;SDS011;50333;47.436;21.390;2023-02-21T08:25:47;4.07;;;2.47;;
64085;SDS011;50333;47.436;21.390;2023-02-21T08:28:16;5.37;;;2.72;;
64085;SDS011;50333;47.436;21.390;2023-02-21T08:30:44;3.97;;;2.33;;
64085;SDS011;50333;47.436;21.390;2023-02-21T08:33:12;5.18;;;2.22;;
64085;SDS011;50333;47.436;21.390;2023-02-21T08:35:39;5.60;;;2.65;;
64085;SDS011;50333;47.436;21.390;2023-02-21T08:38:07;11.32;;;2.47;;
64085;SDS011;50333;47.436;21.390;2023-02-21T08:40:36;12.73;;;2.92;;
64085;SDS011;50333;47.436;21.390;2023-02-21T08:43:04;3.97;;;2.25;;
64085;SDS011;50333;47.436;21.390;2023-02-21T08:45:32;3.72;;;2.30;;
64085;SDS011;50333;47.436;21.390;2023-02-21T08:48:00;3.87;;;2.10;;
64085;SDS011;50333;47.436;21.390;2023-02-21T08:50:28;6.35;;;2.53;;
64085;SDS011;50333;47.436;21.390;2023-02-21T08:52:56;7.85;;;2.35;;
64085;SDS011;50333;47.436;21.390;2023-02-21T08:55:24;3.58;;;2.20;;
64085;SDS011;50333;47.436;21.390;2023-02-21T08:57:52;14.60;;;3.12;;
64085;SDS011;50333;47.436;21.390;2023-02-21T09:00:22;6.93;;;2.03;;
64085;SDS011;50333;47.436;21.390;2023-02-21T09:02:51;2.45;;;2.00;;
64085;SDS011;50333;47.436;21.390;2023-02-21T09:05:21;6.28;;;2.50;;
64085;SDS011;50333;47.436;21.390;2023-02-21T09:07:54;4.87;;;2.47;;
64085;SDS011;50333;47.436;21.390;2023-02-21T09:10:26;6.72;;;2.35;;
64085;SDS011;50333;47.436;21.390;2023-02-21T09:12:55;5.37;;;2.17;;
64085;SDS011;50333;47.436;21.390;2023-02-21T09:15:23;4.40;;;2.30;;
64085;SDS011;50333;47.436;21.390;2023-02-21T09:17:51;7.05;;;2.30;;
64085;SDS011;50333;47.436;21.390;2023-02-21T09:20:23;6.28;;;2.05;;
64085;SDS011;50333;47.436;21.390;2023-02-21T09:22:52;5.45;;;2.05;;
64085;SDS011;50333;47.436;21.390;2023-02-21T09:25:21;4.65;;;2.33;;
64085;SDS011;50333;47.436;21.390;2023-02-21T09:27:51;9.10;;;2.80;;
64085;SDS011;50333;47.436;21.390;2023-02-21T09:30:22;6.50;;;2.20;;
64085;SDS011;50333;47.436;21.390;2023-02-21T09:32:53;3.87;;;1.92;;
64085;SDS011;50333;47.436;21.390;2023-02-21T09:35:22;5.72;;;2.10;;
64085;SDS011;50333;47.436;21.390;2023-02-21T09:37:50;5.10;;;2.47;;
64085;SDS011;50333;47.436;21.390;2023-02-21T09:40:28;13.18;;;2.28;;
64085;SDS011;50333;47.436;21.390;2023-02-21T09:43:46;18.48;;;2.55;;
64085;SDS011;50333;47.436;21.390;2023-02-21T09:46:13;3.35;;;2.17;;
64085;SDS011;50333;47.436;21.390;2023-02-21T09:48:47;9.23;;;2.50;;
64085;SDS011;50333;47.436;21.390;2023-02-21T09:51:14;17.90;;;2.37;;
64085;SDS011;50333;47.436;21.390;2023-02-21T09:53:45;5.80;;;2.15;;
64085;SDS011;50333;47.436;21.390;2023-02-21T09:58:51;13.02;;;2.10;;
64085;SDS011;50333;47.436;21.390;2023-02-21T10:01:21;33.00;;;3.85;;
64085;SDS011;50333;47.436;21.390;2023-02-21T10:11:58;5.78;;;2.87;;
64085;SDS011;50333;47.436;21.390;2023-02-21T10:17:44;3.50;;;1.75;;
64085;SDS011;50333;47.436;21.390;2023-02-21T10:20:53;3.50;;;2.00;;
64085;SDS011;50333;47.436;21.390;2023-02-21T10:26:35;4.45;;;1.90;;
64085;SDS011;50333;47.436;21.390;2023-02-21T10:29:16;2.60;;;1.80;;
64085;SDS011;50333;47.436;21.390;2023-02-21T10:31:54;3.17;;;2.10;;
64085;SDS011;50333;47.436;21.390;2023-02-21T10:34:26;3.67;;;1.98;;
64085;SDS011;50333;47.436;21.390;2023-02-21T10:36:57;3.83;;;2.05;;
64085;SDS011;50333;47.436;21.390;2023-02-21T10:39:41;4.40;;;2.22;;
64085;SDS011;50333;47.436;21.390;2023-02-21T10:42:13;4.25;;;2.20;;
64085;SDS011;50333;47.436;21.390;2023-02-21T10:44:52;4.60;;;2.00;;
64085;SDS011;50333;47.436;21.390;2023-02-21T10:47:25;6.12;;;2.10;;
64085;SDS011;50333;47.436;21.390;2023-02-21T10:50:13;3.62;;;1.60;;
64085;SDS011;50333;47.436;21.390;2023-02-21T10:52:49;3.62;;;2.05;;
64085;SDS011;50333;47.436;21.390;2023-02-21T10:55:19;9.65;;;6.18;;
64085;SDS011;50333;47.436;21.390;2023-02-21T10:58:07;84.93;;;7.20;;
64085;SDS011;50333;47.436;21.390;2023-02-21T11:00:38;12.02;;;2.62;;
64085;SDS011;50333;47.436;21.390;2023-02-21T11:05:51;10.43;;;1.80;;
64085;SDS011;50333;47.436;21.390;2023-02-21T11:08:37;12.85;;;2.20;;
64085;SDS011;50333;47.436;21.390;2023-02-21T11:11:07;6.30;;;2.20;;
64085;SDS011;50333;47.436;21.390;2023-02-21T11:13:36;5.57;;;1.98;;
64085;SDS011;50333;47.436;21.390;2023-02-21T11:18:42;7.10;;;2.12;;
64085;SDS011;50333;47.436;21.390;2023-02-21T11:21:12;7.53;;;2.30;;
64085;SDS011;50333;47.436;21.390;2023-02-21T11:23:44;3.60;;;2.15;;
64085;SDS011;50333;47.436;21.390;2023-02-21T11:26:15;7.45;;;2.35;;
64085;SDS011;50333;47.436;21.390;2023-02-21T11:28:44;16.37;;;2.47;;
64085;SDS011;50333;47.436;21.390;2023-02-21T11:33:57;9.20;;;2.30;;
64085;SDS011;50333;47.436;21.390;2023-02-21T11:36:34;5.80;;;2.33;;
64085;SDS011;50333;47.436;21.390;2023-02-21T11:41:55;3.90;;;1.67;;
64085;SDS011;50333;47.436;21.390;2023-02-21T11:44:29;7.53;;;1.80;;
64085;SDS011;50333;47.436;21.390;2023-02-21T11:50:05;2.75;;;2.10;;
64085;SDS011;50333;47.436;21.390;2023-02-21T11:55:21;2.85;;;1.83;;
64085;SDS011;50333;47.436;21.390;2023-02-21T12:03:43;4.37;;;1.98;;
64085;SDS011;50333;47.436;21.390;2023-02-21T12:09:43;2.08;;;1.50;;
64085;SDS011;50333;47.436;21.390;2023-02-21T12:26:20;3.55;;;1.70;;
64085;SDS011;50333;47.436;21.390;2023-02-21T12:34:30;5.82;;;1.83;;
64085;SDS011;50333;47.436;21.390;2023-02-21T12:40:18;3.83;;;2.12;;
64085;SDS011;50333;47.436;21.390;2023-02-21T12:45:43;3.47;;;1.60;;
64085;SDS011;50333;47.436;21.390;2023-02-21T12:51:29;3.60;;;1.90;;
64085;SDS011;50333;47.436;21.390;2023-02-21T12:54:03;4.20;;;1.52;;
64085;SDS011;50333;47.436;21.390;2023-02-21T13:02:34;4.45;;;1.48;;
64085;SDS011;50333;47.436;21.390;2023-02-21T13:05:13;4.70;;;1.90;;
64085;SDS011;50333;47.436;21.390;2023-02-21T13:10:21;1.67;;;1.40;;
64085;SDS011;50333;47.436;21.390;2023-02-21T13:12:56;3.15;;;1.75;;
64085;SDS011;50333;47.436;21.390;2023-02-21T13:15:29;3.37;;;1.50;;
64085;SDS011;50333;47.436;21.390;2023-02-21T13:18:03;2.05;;;1.60;;
64085;SDS011;50333;47.436;21.390;2023-02-21T13:20:41;3.30;;;1.58;;
64085;SDS011;50333;47.436;21.390;2023-02-21T13:26:21;4.45;;;1.60;;
64085;SDS011;50333;47.436;21.390;2023-02-21T13:28:54;1.87;;;1.30;;
64085;SDS011;50333;47.436;21.390;2023-02-21T13:31:31;3.90;;;1.95;;
64085;SDS011;50333;47.436;21.390;2023-02-21T13:34:05;3.28;;;1.60;;
64085;SDS011;50333;47.436;21.390;2023-02-21T13:39:14;4.03;;;1.35;;
64085;SDS011;50333;47.436;21.390;2023-02-21T13:41:48;7.93;;;2.00;;
64085;SDS011;50333;47.436;21.390;2023-02-21T13:44:22;3.03;;;1.45;;
64085;SDS011;50333;47.436;21.390;2023-02-21T13:47:03;2.20;;;1.40;;
64085;SDS011;50333;47.436;21.390;2023-02-21T13:49:47;3.25;;;1.80;;
64085;SDS011;50333;47.436;21.390;2023-02-21T13:52:24;1.55;;;1.17;;
64085;SDS011;50333;47.436;21.390;2023-02-21T13:57:48;3.95;;;1.40;;
64085;SDS011;50333;47.436;21.390;2023-02-21T14:05:23;4.32;;;1.60;;
64085;SDS011;50333;47.436;21.390;2023-02-21T14:10:26;6.18;;;2.03;;
64085;SDS011;50333;47.436;21.390;2023-02-21T14:13:00;3.12;;;1.85;;
64085;SDS011;50333;47.436;21.390;2023-02-21T14:15:39;5.28;;;1.80;;
64085;SDS011;50333;47.436;21.390;2023-02-21T14:18:13;2.83;;;1.60;;
64085;SDS011;50333;47.436;21.390;2023-02-21T14:20:46;2.75;;;1.58;;
64085;SDS011;50333;47.436;21.390;2023-02-21T14:23:16;2.30;;;1.87;;
64085;SDS011;50333;47.436;21.390;2023-02-21T14:25:53;2.90;;;1.67;;
64085;SDS011;50333;47.436;21.390;2023-02-21T14:31:39;4.60;;;2.00;;
64085;SDS011;50333;47.436;21.390;2023-02-21T14:34:13;2.22;;;1.45;;
64085;SDS011;50333;47.436;21.390;2023-02-21T14:39:13;2.33;;;1.60;;
64085;SDS011;50333;47.436;21.390;2023-02-21T14:44:18;4.47;;;2.12;;
64085;SDS011;50333;47.436;21.390;2023-02-21T15:02:17;4.78;;;1.60;;
64085;SDS011;50333;47.436;21.390;2023-02-21T15:08:03;8.02;;;1.83;;
64085;SDS011;50333;47.436;21.390;2023-02-21T15:10:58;4.28;;;1.55;;
64085;SDS011;50333;47.436;21.390;2023-02-21T15:13:30;4.10;;;1.50;;
64085;SDS011;50333;47.436;21.390;2023-02-21T15:21:22;2.53;;;1.73;;
64085;SDS011;50333;47.436;21.390;2023-02-21T15:24:00;2.50;;;1.50;;
64085;SDS011;50333;47.436;21.390;2023-02-21T15:26:49;2.05;;;1.52;;
64085;SDS011;50333;47.436;21.390;2023-02-21T15:29:39;3.50;;;1.60;;
64085;SDS011;50333;47.436;21.390;2023-02-21T15:32:09;2.17;;;1.45;;
64085;SDS011;50333;47.436;21.390;2023-02-21T15:34:40;5.05;;;1.70;;
64085;SDS011;50333;47.436;21.390;2023-02-21T15:37:15;2.42;;;1.50;;
64085;SDS011;50333;47.436;21.390;2023-02-21T15:39:55;1.62;;;1.50;;
64085;SDS011;50333;47.436;21.390;2023-02-21T15:42:30;1.50;;;1.40;;
64085;SDS011;50333;47.436;21.390;2023-02-21T15:45:00;6.05;;;1.55;;
64085;SDS011;50333;47.436;21.390;2023-02-21T15:47:31;3.03;;;1.62;;
64085;SDS011;50333;47.436;21.390;2023-02-21T15:50:03;5.07;;;2.90;;
64085;SDS011;50333;47.436;21.390;2023-02-21T15:52:46;2.47;;;1.87;;
64085;SDS011;50333;47.436;21.390;2023-02-21T15:57:46;2.40;;;1.90;;
64085;SDS011;50333;47.436;21.390;2023-02-21T16:06:13;5.22;;;2.50;;
64085;SDS011;50333;47.436;21.390;2023-02-21T16:11:42;3.90;;;1.90;;
64085;SDS011;50333;47.436;21.390;2023-02-21T16:14:55;8.35;;;1.90;;
64085;SDS011;50333;47.436;21.390;2023-02-21T16:19:48;2.97;;;1.83;;
64085;SDS011;50333;47.436;21.390;2023-02-21T16:22:34;4.43;;;1.95;;
64085;SDS011;50333;47.436;21.390;2023-02-21T16:25:26;2.67;;;2.20;;
64085;SDS011;50333;47.436;21.390;2023-02-21T16:27:57;4.60;;;2.40;;
64085;SDS011;50333;47.436;21.390;2023-02-21T16:30:29;3.47;;;2.20;;
64085;SDS011;50333;47.436;21.390;2023-02-21T16:32:59;9.40;;;5.57;;
64085;SDS011;50333;47.436;21.390;2023-02-21T16:35:29;5.90;;;2.67;;
64085;SDS011;50333;47.436;21.390;2023-02-21T16:37:58;20.30;;;2.72;;
64085;SDS011;50333;47.436;21.390;2023-02-21T16:40:29;14.07;;;2.15;;
64085;SDS011;50333;47.436;21.390;2023-02-21T16:43:00;7.35;;;2.17;;
64085;SDS011;50333;47.436;21.390;2023-02-21T16:45:30;5.07;;;1.60;;
64085;SDS011;50333;47.436;21.390;2023-02-21T16:48:00;17.70;;;6.82;;
64085;SDS011;50333;47.436;21.390;2023-02-21T16:50:34;4.32;;;2.78;;
64085;SDS011;50333;47.436;21.390;2023-02-21T16:53:04;6.15;;;3.45;;
64085;SDS011;50333;47.436;21.390;2023-02-21T16:55:32;10.48;;;4.95;;
64085;SDS011;50333;47.436;21.390;2023-02-21T16:58:02;4.80;;;3.03;;
64085;SDS011;50333;47.436;21.390;2023-02-21T17:00:38;12.32;;;5.37;;
64085;SDS011;50333;47.436;21.390;2023-02-21T17:03:06;24.75;;;8.65;;
64085;SDS011;50333;47.436;21.390;2023-02-21T17:05:34;22.95;;;10.43;;
64085;SDS011;50333;47.436;21.390;2023-02-21T17:08:02;31.37;;;15.30;;
64085;SDS011;50333;47.436;21.390;2023-02-21T17:10:31;4.37;;;3.47;;
64085;SDS011;50333;47.436;21.390;2023-02-21T17:13:00;5.25;;;3.15;;
64085;SDS011;50333;47.436;21.390;2023-02-21T17:15:30;11.65;;;4.40;;
64085;SDS011;50333;47.436;21.390;2023-02-21T17:17:58;16.65;;;7.25;;
64085;SDS011;50333;47.436;21.390;2023-02-21T17:20:28;26.37;;;12.13;;
64085;SDS011;50333;47.436;21.390;2023-02-21T17:22:56;25.52;;;12.98;;
64085;SDS011;50333;47.436;21.390;2023-02-21T17:25:25;15.32;;;7.80;;
64085;SDS011;50333;47.436;21.390;2023-02-21T17:27:53;9.90;;;3.70;;
64085;SDS011;50333;47.436;21.390;2023-02-21T17:30:23;14.85;;;3.53;;
64085;SDS011;50333;47.436;21.390;2023-02-21T17:32:51;7.87;;;3.65;;
64085;SDS011;50333;47.436;21.390;2023-02-21T17:35:20;22.65;;;11.10;;
64085;SDS011;50333;47.436;21.390;2023-02-21T17:37:49;10.65;;;7.12;;
64085;SDS011;50333;47.436;21.390;2023-02-21T17:40:19;4.97;;;4.10;;
64085;SDS011;50333;47.436;21.390;2023-02-21T17:42:48;4.12;;;3.25;;
64085;SDS011;50333;47.436;21.390;2023-02-21T17:45:20;4.28;;;2.92;;
64085;SDS011;50333;47.436;21.390;2023-02-21T17:47:57;2.75;;;2.40;;
64085;SDS011;50333;47.436;21.390;2023-02-21T17:50:25;4.90;;;2.83;;
64085;SDS011;50333;47.436;21.390;2023-02-21T17:52:53;10.65;;;6.07;;
64085;SDS011;50333;47.436;21.390;2023-02-21T17:55:22;9.68;;;7.25;;
64085;SDS011;50333;47.436;21.390;2023-02-21T17:57:52;10.40;;;6.20;;
64085;SDS011;50333;47.436;21.390;2023-02-21T18:00:23;7.75;;;5.28;;
64085;SDS011;50333;47.436;21.390;2023-02-21T18:02:53;4.57;;;3.78;;
64085;SDS011;50333;47.436;21.390;2023-02-21T18:05:22;6.45;;;3.08;;
64085;SDS011;50333;47.436;21.390;2023-02-21T18:07:51;3.40;;;2.55;;
64085;SDS011;50333;47.436;21.390;2023-02-21T18:10:21;3.58;;;2.33;;
64085;SDS011;50333;47.436;21.390;2023-02-21T18:12:51;3.50;;;2.33;;
64085;SDS011;50333;47.436;21.390;2023-02-21T18:15:20;3.22;;;2.33;;
64085;SDS011;50333;47.436;21.390;2023-02-21T18:17:50;3.42;;;2.72;;